Time;durP1;ratioP1;P1;durP2;ratioP2;P2;SDS_P1;SDS_P2;PMS_P1;PMS_P2;Temp;Humidity;BMP_temperature;BMP_pressure;BME280_temperature;BME280_humidity;BME280_pressure;Samples;Min_cycle;Max_cycle;Signal;HPM_P1;HPM_P2
2023/12/18 00:00:39;;;;;;;17.50;5.50;;;8.90;93.10;;;;;;5040788;28;20396;-80
2023/12/18 00:03:05;;;;;;;15.68;4.78;;;9.00;93.20;;;;;;5022455;28;20092;-80
2023/12/18 00:05:30;;;;;;;19.77;5.18;;;9.00;93.00;;;;;;5068975;28;20109;-79
2023/12/18 00:07:56;;;;;;;14.40;5.68;;;9.00;93.10;;;;;;5046082;28;20036;-79
2023/12/18 00:10:22;;;;;;;15.18;4.68;;;9.00;92.90;;;;;;5077109;28;20068;-80
2023/12/18 00:12:48;;;;;;;16.95;5.55;;;9.00;93.10;;;;;;5067709;28;20037;-79
2023/12/18 00:15:14;;;;;;;13.65;4.93;;;9.00;93.10;;;;;;5051062;28;20064;-79
2023/12/18 00:17:39;;;;;;;14.02;5.30;;;9.00;93.10;;;;;;5034646;28;20037;-80
2023/12/18 00:20:05;;;;;;;13.48;4.68;;;9.00;93.00;;;;;;5067518;28;20037;-80
2023/12/18 00:22:31;;;;;;;20.85;5.50;;;9.10;93.00;;;;;;5037432;28;20094;-80
2023/12/18 00:24:57;;;;;;;20.23;6.47;;;9.00;93.00;;;;;;5052901;28;20480;-81
2023/12/18 00:27:23;;;;;;;15.95;4.80;;;9.00;93.00;;;;;;5054557;28;20123;-79
2023/12/18 00:29:48;;;;;;;21.20;4.90;;;9.10;92.90;;;;;;5065808;28;20072;-80
2023/12/18 00:32:14;;;;;;;20.52;6.10;;;9.10;92.90;;;;;;5034407;28;20083;-79
2023/12/18 00:34:43;;;;;;;13.48;4.75;;;9.10;92.60;;;;;;5026172;28;20090;-80
2023/12/18 00:37:09;;;;;;;17.13;5.38;;;9.10;92.60;;;;;;5037912;28;20041;-79
2023/12/18 00:39:35;;;;;;;13.85;5.32;;;9.20;92.50;;;;;;5031888;28;20043;-80
2023/12/18 00:42:01;;;;;;;16.90;4.20;;;9.20;92.50;;;;;;5058089;28;20056;-81
2023/12/18 00:44:27;;;;;;;15.15;4.25;;;9.20;92.60;;;;;;5045561;28;20056;-79
2023/12/18 00:46:53;;;;;;;18.27;5.05;;;9.20;92.40;;;;;;5046502;28;20041;-80
2023/12/18 00:49:19;;;;;;;15.45;5.25;;;9.20;92.40;;;;;;5037514;28;20072;-79
2023/12/18 00:51:45;;;;;;;17.13;4.32;;;9.10;92.40;;;;;;5062430;28;20076;-81
2023/12/18 00:54:10;;;;;;;13.27;4.93;;;9.10;92.50;;;;;;5044374;28;20043;-80
2023/12/18 00:56:36;;;;;;;21.00;6.18;;;9.10;92.30;;;;;;5060931;28;20040;-79
2023/12/18 00:59:02;;;;;;;28.40;6.00;;;9.10;92.60;;;;;;5038634;28;20093;-80
2023/12/18 01:01:28;;;;;;;15.00;4.63;;;9.10;92.40;;;;;;5039980;28;20041;-80
2023/12/18 01:03:54;;;;;;;15.40;5.40;;;9.10;92.60;;;;;;5045439;28;20047;-79
2023/12/18 01:06:20;;;;;;;13.40;4.72;;;9.10;92.40;;;;;;5057547;28;20043;-78
2023/12/18 01:08:45;;;;;;;14.02;5.25;;;9.10;92.20;;;;;;5057229;28;20150;-79
2023/12/18 01:11:11;;;;;;;16.75;4.60;;;9.20;92.00;;;;;;5036093;28;20429;-79
2023/12/18 01:13:37;;;;;;;15.02;4.20;;;9.10;91.90;;;;;;5054240;28;20079;-79
2023/12/18 01:16:02;;;;;;;22.45;5.93;;;9.10;91.80;;;;;;5048192;28;20048;-81
2023/12/18 01:18:28;;;;;;;17.63;5.63;;;9.10;91.80;;;;;;5090618;28;20036;-80
2023/12/18 01:20:54;;;;;;;14.23;4.85;;;9.10;91.80;;;;;;5049442;28;20036;-82
2023/12/18 01:23:20;;;;;;;14.25;4.28;;;9.10;91.90;;;;;;5072170;28;20041;-80
2023/12/18 01:25:46;;;;;;;12.93;3.85;;;9.10;92.00;;;;;;5039399;28;20043;-78
2023/12/18 01:28:11;;;;;;;17.27;5.10;;;9.10;91.90;;;;;;5073913;28;20041;-81
2023/12/18 01:30:37;;;;;;;12.68;4.07;;;9.10;92.00;;;;;;5071469;28;20033;-79
2023/12/18 01:33:03;;;;;;;13.40;4.57;;;9.10;92.00;;;;;;5055061;28;20397;-80
2023/12/18 01:35:28;;;;;;;14.82;4.95;;;9.10;92.10;;;;;;5054044;28;20103;-80
2023/12/18 01:37:54;;;;;;;12.80;4.68;;;9.00;92.20;;;;;;5037112;28;20049;-79
2023/12/18 01:40:20;;;;;;;17.00;5.15;;;9.10;92.20;;;;;;5042144;28;20131;-78
2023/12/18 01:42:46;;;;;;;17.80;4.57;;;9.10;92.20;;;;;;5059283;28;20459;-82
2023/12/18 01:45:11;;;;;;;17.88;4.80;;;9.10;92.30;;;;;;5073300;28;20075;-80
2023/12/18 01:47:38;;;;;;;16.60;5.93;;;9.00;92.40;;;;;;5059935;28;20055;-82
2023/12/18 01:50:06;;;;;;;18.20;4.20;;;9.00;92.50;;;;;;5045508;28;20114;-83
2023/12/18 01:52:32;;;;;;;19.45;5.63;;;9.00;92.60;;;;;;5052950;28;20067;-81
2023/12/18 01:54:58;;;;;;;18.60;6.22;;;9.00;92.60;;;;;;5069178;28;20441;-80
2023/12/18 01:57:25;;;;;;;19.95;4.65;;;9.00;92.60;;;;;;5054703;28;20043;-79
2023/12/18 01:59:52;;;;;;;18.13;4.82;;;9.00;92.60;;;;;;5053068;28;20041;-80
2023/12/18 02:02:18;;;;;;;18.38;4.75;;;9.00;92.50;;;;;;5036580;28;20103;-82
2023/12/18 02:04:44;;;;;;;40.10;5.90;;;9.00;92.60;;;;;;5069228;28;20032;-78
2023/12/18 02:07:11;;;;;;;15.30;4.45;;;9.00;92.70;;;;;;5053485;28;20041;-80
2023/12/18 02:09:37;;;;;;;16.30;4.32;;;9.00;92.80;;;;;;5088966;28;20119;-80
2023/12/18 02:12:04;;;;;;;19.08;4.60;;;9.00;92.80;;;;;;5034705;28;20544;-80
2023/12/18 02:14:30;;;;;;;17.17;4.78;;;9.00;92.90;;;;;;5035863;28;20041;-80
2023/12/18 02:16:55;;;;;;;18.15;5.90;;;9.00;92.90;;;;;;5036345;28;20094;-81
2023/12/18 02:19:22;;;;;;;22.45;4.57;;;8.90;93.10;;;;;;5036621;28;20040;-79
2023/12/18 02:21:48;;;;;;;16.67;4.75;;;8.90;93.00;;;;;;5035911;28;20489;-79
2023/12/18 02:24:13;;;;;;;15.32;4.93;;;8.90;93.10;;;;;;5035963;28;20039;-80
2023/12/18 02:26:39;;;;;;;21.88;4.60;;;8.90;93.20;;;;;;5069436;28;20129;-80
2023/12/18 02:29:05;;;;;;;18.83;5.18;;;8.90;93.40;;;;;;5072188;28;20032;-81
2023/12/18 02:31:30;;;;;;;14.25;4.95;;;8.90;93.10;;;;;;5071574;28;20496;-80
2023/12/18 02:33:56;;;;;;;16.42;4.38;;;8.80;93.30;;;;;;5052470;28;20037;-78
2023/12/18 02:36:22;;;;;;;16.60;4.55;;;8.80;93.40;;;;;;5036118;28;20044;-80
2023/12/18 02:38:48;;;;;;;16.98;4.88;;;8.90;93.40;;;;;;5069199;28;20164;-79
2023/12/18 02:41:13;;;;;;;23.70;5.13;;;8.90;93.20;;;;;;5043496;28;20032;-78
2023/12/18 02:43:39;;;;;;;18.55;5.30;;;8.90;93.20;;;;;;5051271;28;20057;-79
2023/12/18 02:46:05;;;;;;;16.17;4.45;;;8.90;93.20;;;;;;5068841;28;20124;-78
2023/12/18 02:48:30;;;;;;;14.07;4.60;;;8.90;93.20;;;;;;5051202;28;20036;-78
2023/12/18 02:50:56;;;;;;;19.17;5.07;;;8.90;93.20;;;;;;5035708;28;20083;-81
2023/12/18 02:53:22;;;;;;;12.75;4.60;;;8.90;93.20;;;;;;5056521;28;20090;-81
2023/12/18 02:55:48;;;;;;;12.02;3.95;;;8.90;93.40;;;;;;5052058;28;20110;-79
2023/12/18 02:58:14;;;;;;;18.55;4.80;;;8.90;93.20;;;;;;5044187;28;20044;-81
2023/12/18 03:00:39;;;;;;;14.52;4.50;;;8.90;93.30;;;;;;5056349;28;20546;-77
2023/12/18 03:03:05;;;;;;;16.23;4.35;;;8.90;93.50;;;;;;5071648;28;20037;-81
2023/12/18 03:05:31;;;;;;;17.02;4.70;;;8.90;93.50;;;;;;5035208;28;20045;-78
2023/12/18 03:07:56;;;;;;;20.17;5.32;;;8.90;93.40;;;;;;5051723;28;20072;-78
2023/12/18 03:10:22;;;;;;;15.52;4.63;;;8.90;93.60;;;;;;5033685;28;20041;-82
2023/12/18 03:12:48;;;;;;;16.38;4.78;;;8.80;93.60;;;;;;5035713;28;20383;-80
2023/12/18 03:15:14;;;;;;;17.60;4.95;;;8.80;93.80;;;;;;5057892;28;20048;-81
2023/12/18 03:17:39;;;;;;;13.68;5.05;;;8.80;93.80;;;;;;5054842;28;20400;-81
2023/12/18 03:20:06;;;;;;;15.80;4.78;;;8.80;93.80;;;;;;5055843;28;20086;-79
2023/12/18 03:22:32;;;;;;;14.00;4.93;;;8.80;93.80;;;;;;5051572;28;20386;-81
2023/12/18 03:24:57;;;;;;;19.60;5.65;;;8.80;93.70;;;;;;5067881;28;20155;-79
2023/12/18 03:27:23;;;;;;;16.70;4.45;;;8.90;93.70;;;;;;5051737;28;20048;-79
2023/12/18 03:29:49;;;;;;;13.75;4.10;;;8.90;93.70;;;;;;5034565;28;20120;-78
2023/12/18 03:32:14;;;;;;;17.42;4.30;;;8.80;93.70;;;;;;5060708;28;20125;-79
2023/12/18 03:34:40;;;;;;;22.42;5.45;;;8.90;93.60;;;;;;5048931;28;20041;-80
2023/12/18 03:37:06;;;;;;;16.42;4.32;;;8.90;93.80;;;;;;5036938;28;20455;-78
2023/12/18 03:39:31;;;;;;;11.82;4.38;;;8.90;93.70;;;;;;5034926;28;20063;-80
2023/12/18 03:41:57;;;;;;;21.90;4.85;;;8.90;93.80;;;;;;5058031;28;20063;-79
2023/12/18 03:44:23;;;;;;;15.50;4.75;;;8.90;93.80;;;;;;5017999;28;20072;-79
2023/12/18 03:46:49;;;;;;;16.17;3.97;;;8.80;93.90;;;;;;5053416;28;20094;-81
2023/12/18 03:49:14;;;;;;;21.70;4.85;;;9.00;93.90;;;;;;5050847;28;20044;-81
2023/12/18 03:51:40;;;;;;;17.92;4.57;;;8.90;93.70;;;;;;5067993;28;20045;-82
2023/12/18 03:54:06;;;;;;;15.18;4.18;;;8.90;93.80;;;;;;5035234;28;20044;-82
2023/12/18 03:56:31;;;;;;;20.40;4.68;;;9.00;93.70;;;;;;5095910;28;20040;-81
2023/12/18 03:58:57;;;;;;;14.73;3.95;;;9.00;93.70;;;;;;5062993;28;20046;-80
2023/12/18 04:01:23;;;;;;;16.42;4.50;;;9.00;93.80;;;;;;5027609;28;20090;-78
2023/12/18 04:03:48;;;;;;;18.95;4.38;;;9.00;93.90;;;;;;5051534;28;20033;-79
2023/12/18 04:06:14;;;;;;;14.48;4.40;;;9.00;93.70;;;;;;5068645;28;20066;-81
2023/12/18 04:08:40;;;;;;;19.85;4.53;;;9.00;93.70;;;;;;5047071;28;20119;-78
2023/12/18 04:11:15;;;;;;;13.63;4.00;;;9.00;93.80;;;;;;5058470;28;20036;-80
2023/12/18 04:13:41;;;;;;;15.45;4.35;;;9.00;93.70;;;;;;5074947;28;20047;-79
2023/12/18 04:16:07;;;;;;;16.17;4.72;;;9.00;93.60;;;;;;5038015;28;20045;-81
2023/12/18 04:18:35;;;;;;;19.35;5.10;;;9.00;93.60;;;;;;5045440;28;20067;-77
2023/12/18 04:21:01;;;;;;;14.55;3.95;;;9.10;93.60;;;;;;5069790;28;20060;-78
2023/12/18 04:23:26;;;;;;;15.27;4.70;;;9.00;93.70;;;;;;5038165;28;20048;-81
2023/12/18 04:25:52;;;;;;;17.23;4.55;;;9.00;93.70;;;;;;5088313;28;20025;-80
2023/12/18 04:28:18;;;;;;;14.98;4.97;;;9.00;93.60;;;;;;5054310;28;20460;-81
2023/12/18 04:30:44;;;;;;;17.55;4.40;;;9.00;93.70;;;;;;5054847;28;20033;-79
2023/12/18 04:33:09;;;;;;;14.60;4.45;;;9.00;93.80;;;;;;5055762;28;20563;-77
2023/12/18 04:35:36;;;;;;;18.63;5.25;;;9.00;93.70;;;;;;5056675;28;20066;-78
2023/12/18 04:38:02;;;;;;;14.77;4.90;;;9.00;93.70;;;;;;5058318;28;20045;-79
2023/12/18 04:40:27;;;;;;;11.88;3.83;;;8.90;93.90;;;;;;5039857;28;20044;-80
2023/12/18 04:42:54;;;;;;;14.18;4.53;;;9.00;93.80;;;;;;5055820;28;20513;-78
2023/12/18 04:45:20;;;;;;;15.73;4.05;;;9.00;93.60;;;;;;5054805;28;20049;-78
2023/12/18 04:47:46;;;;;;;18.23;4.65;;;9.00;93.80;;;;;;5088480;28;20128;-78
2023/12/18 04:50:13;;;;;;;21.08;4.90;;;9.00;93.80;;;;;;5037837;28;20116;-80
2023/12/18 04:52:39;;;;;;;13.30;3.92;;;9.10;93.80;;;;;;5063313;28;20490;-79
2023/12/18 04:55:05;;;;;;;24.10;5.63;;;9.10;93.50;;;;;;5057720;28;20127;-80
2023/12/18 04:57:31;;;;;;;16.13;4.95;;;9.10;93.60;;;;;;5046495;28;20108;-79
2023/12/18 04:59:57;;;;;;;21.27;5.90;;;9.10;93.60;;;;;;5057343;28;20048;-79
2023/12/18 05:02:23;;;;;;;16.42;5.00;;;9.10;93.50;;;;;;5048414;28;20041;-81
2023/12/18 05:04:48;;;;;;;15.20;5.43;;;9.10;93.60;;;;;;5073752;28;20093;-80
2023/12/18 05:07:14;;;;;;;15.27;5.47;;;9.10;93.70;;;;;;5056666;28;20053;-81
2023/12/18 05:09:40;;;;;;;19.85;5.32;;;9.10;93.70;;;;;;5096545;28;20033;-82
2023/12/18 05:12:06;;;;;;;23.48;6.43;;;9.10;93.70;;;;;;5057227;28;20041;-77
2023/12/18 05:14:32;;;;;;;28.83;5.78;;;9.10;93.80;;;;;;5076948;28;20046;-78
2023/12/18 05:16:58;;;;;;;15.93;4.75;;;9.10;93.80;;;;;;5056959;28;20127;-79
2023/12/18 05:19:24;;;;;;;12.75;4.43;;;9.00;93.90;;;;;;5038462;28;20400;-79
2023/12/18 05:21:49;;;;;;;15.73;4.45;;;9.00;93.90;;;;;;5038879;28;20029;-78
2023/12/18 05:24:15;;;;;;;16.35;4.60;;;9.00;93.80;;;;;;5049530;28;20098;-79
2023/12/18 05:26:41;;;;;;;19.77;5.15;;;9.00;94.00;;;;;;5049713;28;20040;-79
2023/12/18 05:29:07;;;;;;;19.40;5.43;;;9.00;94.10;;;;;;5057426;28;20473;-78
2023/12/18 05:31:32;;;;;;;18.63;4.38;;;9.00;94.10;;;;;;5054812;28;20029;-78
2023/12/18 05:33:58;;;;;;;20.83;5.50;;;9.00;93.90;;;;;;5062662;28;20132;-77
2023/12/18 05:36:24;;;;;;;22.20;5.38;;;9.00;93.90;;;;;;5063445;28;20458;-79
2023/12/18 05:38:50;;;;;;;18.00;5.35;;;9.00;94.10;;;;;;5035594;28;20073;-79
2023/12/18 05:41:15;;;;;;;16.85;4.07;;;9.00;94.00;;;;;;5024053;28;20079;-81
2023/12/18 05:43:41;;;;;;;23.63;6.13;;;9.00;94.00;;;;;;5037857;28;20095;-80
2023/12/18 05:46:11;;;;;;;24.50;5.63;;;9.00;93.90;;;;;;5066339;28;20389;-81
2023/12/18 05:48:39;;;;;;;21.02;5.47;;;9.00;93.90;;;;;;5055486;28;20044;-80
2023/12/18 05:51:05;;;;;;;18.75;4.68;;;9.00;94.10;;;;;;5053296;28;20119;-81
2023/12/18 05:53:31;;;;;;;16.25;5.20;;;9.00;94.30;;;;;;5036553;28;20124;-79
2023/12/18 05:55:56;;;;;;;20.17;4.80;;;9.00;94.30;;;;;;5031583;28;20562;-78
2023/12/18 05:58:22;;;;;;;17.75;5.32;;;9.00;94.40;;;;;;5047413;28;20080;-80
2023/12/18 06:00:48;;;;;;;16.92;5.22;;;9.00;94.40;;;;;;5027267;28;20742;-80
2023/12/18 06:03:13;;;;;;;19.75;6.65;;;9.00;94.30;;;;;;5054539;28;20097;-78
2023/12/18 06:05:39;;;;;;;23.70;6.35;;;9.00;94.30;;;;;;5062816;28;20036;-80
2023/12/18 06:08:05;;;;;;;25.05;7.65;;;9.00;94.30;;;;;;5056795;28;20067;-79
2023/12/18 06:10:30;;;;;;;28.33;9.68;;;9.00;94.30;;;;;;5040225;28;20082;-79
2023/12/18 06:12:56;;;;;;;21.83;9.90;;;8.80;94.10;;;;;;5020057;28;20063;-80
2023/12/18 06:15:22;;;;;;;25.45;11.73;;;8.70;94.20;;;;;;5052663;28;20071;-79
2023/12/18 06:17:47;;;;;;;21.48;10.88;;;8.60;94.30;;;;;;5082119;28;20032;-79
2023/12/18 06:20:13;;;;;;;26.73;12.15;;;8.60;94.40;;;;;;5019746;28;20125;-77
2023/12/18 06:22:39;;;;;;;27.80;13.95;;;8.50;94.40;;;;;;5069254;28;20037;-79
2023/12/18 06:25:05;;;;;;;29.40;13.20;;;8.40;94.80;;;;;;5068852;28;20037;-79
2023/12/18 06:27:31;;;;;;;26.88;11.43;;;8.40;94.80;;;;;;5036213;28;20275;-80
2023/12/18 06:29:57;;;;;;;28.70;11.90;;;8.40;94.90;;;;;;5071854;28;20052;-81
2023/12/18 06:32:22;;;;;;;26.73;12.68;;;8.40;95.10;;;;;;5054281;28;20036;-78
2023/12/18 06:34:50;;;;;;;31.98;11.65;;;8.30;95.20;;;;;;5077145;28;20047;-79
2023/12/18 06:37:15;;;;;;;25.85;12.57;;;8.30;95.30;;;;;;5108769;27;20064;-80
2023/12/18 06:39:42;;;;;;;32.97;12.45;;;8.30;95.20;;;;;;5052931;28;20043;-81
2023/12/18 06:42:07;;;;;;;22.63;12.13;;;8.30;95.30;;;;;;5051581;28;20543;-80
2023/12/18 06:44:34;;;;;;;30.67;12.32;;;8.20;95.50;;;;;;5072435;28;20048;-81
2023/12/18 06:46:59;;;;;;;29.13;13.85;;;8.20;95.50;;;;;;5074944;28;20412;-80
2023/12/18 06:49:25;;;;;;;26.88;13.93;;;8.20;95.70;;;;;;5039881;28;20110;-78
2023/12/18 06:51:51;;;;;;;31.90;14.23;;;8.20;95.60;;;;;;5056347;28;20287;-80
2023/12/18 06:54:17;;;;;;;26.50;13.50;;;8.20;95.40;;;;;;5057411;28;20036;-79
2023/12/18 06:56:43;;;;;;;26.73;14.32;;;8.20;95.50;;;;;;5085238;28;20123;-78
2023/12/18 06:59:08;;;;;;;28.73;13.18;;;8.20;95.40;;;;;;5070840;28;20142;-79
2023/12/18 07:01:34;;;;;;;34.85;15.02;;;8.20;95.40;;;;;;5071972;28;20501;-81
2023/12/18 07:04:00;;;;;;;27.83;15.43;;;8.20;95.50;;;;;;5062665;28;20067;-80
2023/12/18 07:06:25;;;;;;;27.25;13.15;;;8.10;95.50;;;;;;5088275;28;20044;-80
2023/12/18 07:08:51;;;;;;;28.42;15.68;;;8.10;95.40;;;;;;5052812;28;20905;-81
2023/12/18 07:11:17;;;;;;;29.88;16.45;;;8.10;95.60;;;;;;5041942;28;20036;-78
2023/12/18 07:13:42;;;;;;;32.08;14.90;;;8.10;96.00;;;;;;5060605;28;20036;-79
2023/12/18 07:16:08;;;;;;;30.27;15.18;;;8.10;96.00;;;;;;5059877;28;20088;-80
2023/12/18 07:18:34;;;;;;;38.70;16.75;;;8.10;95.70;;;;;;5054311;28;20055;-79
2023/12/18 07:20:59;;;;;;;32.72;15.77;;;8.10;95.90;;;;;;5072042;28;20044;-80
2023/12/18 07:23:25;;;;;;;26.65;14.88;;;8.10;96.00;;;;;;5073239;28;20040;-80
2023/12/18 07:25:51;;;;;;;35.08;17.13;;;8.10;95.50;;;;;;5055946;28;20549;-80
2023/12/18 07:28:17;;;;;;;33.30;18.23;;;8.10;95.60;;;;;;5071643;28;20480;-82
2023/12/18 07:30:43;;;;;;;32.95;15.63;;;8.10;95.80;;;;;;5101041;27;20123;-79
2023/12/18 07:33:08;;;;;;;30.83;18.63;;;8.00;95.80;;;;;;5076300;28;20468;-79
2023/12/18 07:35:34;;;;;;;36.42;20.52;;;8.00;95.80;;;;;;5054526;28;20138;-81
2023/12/18 07:38:00;;;;;;;36.28;19.13;;;8.00;95.80;;;;;;5033929;28;20110;-79
2023/12/18 07:40:25;;;;;;;34.60;20.52;;;8.00;95.80;;;;;;5059682;28;20135;-83
2023/12/18 07:42:51;;;;;;;32.80;18.63;;;7.90;95.80;;;;;;5067067;28;20472;-78
2023/12/18 07:45:18;;;;;;;35.22;20.25;;;7.90;96.00;;;;;;5053236;28;20048;-81
2023/12/18 07:47:43;;;;;;;29.60;17.48;;;7.80;96.00;;;;;;5040106;28;20070;-79
2023/12/18 07:50:09;;;;;;;33.00;20.23;;;7.90;96.10;;;;;;5039406;28;20041;-80
2023/12/18 07:52:35;;;;;;;38.05;20.17;;;7.90;96.30;;;;;;5073545;28;20079;-79
2023/12/18 07:55:02;;;;;;;30.65;19.40;;;7.80;96.40;;;;;;5074202;28;20059;-81
2023/12/18 07:57:28;;;;;;;43.15;21.70;;;7.90;96.20;;;;;;5074139;28;20053;-79
2023/12/18 07:59:54;;;;;;;37.60;20.38;;;7.80;96.40;;;;;;5072734;28;20411;-79
2023/12/18 08:02:20;;;;;;;34.88;19.52;;;7.80;96.40;;;;;;5054246;28;20524;-80
2023/12/18 08:04:46;;;;;;;37.53;21.40;;;7.80;96.50;;;;;;5069581;28;20048;-80
2023/12/18 08:07:12;;;;;;;36.20;19.92;;;7.80;96.30;;;;;;5056297;28;20135;-80
2023/12/18 08:09:37;;;;;;;36.75;21.33;;;7.80;96.50;;;;;;5070643;28;20111;-80
2023/12/18 08:12:04;;;;;;;36.47;22.27;;;7.80;96.50;;;;;;5054068;28;20051;-80
2023/12/18 08:14:29;;;;;;;45.15;22.80;;;7.80;96.60;;;;;;5104164;28;20094;-81
2023/12/18 08:16:55;;;;;;;39.13;22.33;;;7.70;96.80;;;;;;5037702;28;20579;-79
2023/12/18 08:19:21;;;;;;;36.45;23.40;;;7.70;96.60;;;;;;5037473;28;20076;-78
2023/12/18 08:21:47;;;;;;;37.42;22.88;;;7.80;96.80;;;;;;5051256;28;20060;-78
2023/12/18 08:24:12;;;;;;;35.40;22.33;;;7.80;96.60;;;;;;5051558;28;20492;-78
2023/12/18 08:26:38;;;;;;;43.58;22.88;;;7.80;96.80;;;;;;5043131;28;20043;-81
2023/12/18 08:29:04;;;;;;;42.72;21.50;;;7.80;96.80;;;;;;5054946;28;20056;-79
2023/12/18 08:31:30;;;;;;;34.53;19.25;;;7.80;96.80;;;;;;5054004;28;20059;-78
2023/12/18 08:33:56;;;;;;;32.80;19.92;;;7.80;96.70;;;;;;5057939;28;20056;-78
2023/12/18 08:36:22;;;;;;;39.65;23.13;;;7.90;96.50;;;;;;5069201;28;20043;-79
2023/12/18 08:38:47;;;;;;;36.70;20.90;;;7.90;96.60;;;;;;5017570;28;20213;-81
2023/12/18 08:41:13;;;;;;;35.85;21.92;;;7.90;96.50;;;;;;5065617;28;20046;-79
2023/12/18 08:43:39;;;;;;;33.13;19.55;;;7.90;96.80;;;;;;5076035;28;20064;-77
2023/12/18 08:46:05;;;;;;;36.00;21.23;;;7.90;96.70;;;;;;5075069;28;20052;-79
2023/12/18 08:48:31;;;;;;;35.95;19.17;;;7.90;96.50;;;;;;5074329;28;20428;-80
2023/12/18 08:50:57;;;;;;;32.50;19.20;;;8.00;96.40;;;;;;5073685;28;20047;-81
2023/12/18 08:53:22;;;;;;;34.80;18.92;;;8.00;96.40;;;;;;5075308;28;20521;-80
2023/12/18 08:55:48;;;;;;;32.67;20.05;;;8.00;96.40;;;;;;5058804;28;20424;-80
2023/12/18 08:58:14;;;;;;;30.88;20.90;;;8.00;96.50;;;;;;5062381;28;20481;-80
2023/12/18 09:00:40;;;;;;;33.08;19.58;;;8.00;96.40;;;;;;5095318;28;20404;-79
2023/12/18 09:03:06;;;;;;;33.88;21.88;;;8.10;96.30;;;;;;5062123;28;20039;-78
2023/12/18 09:05:31;;;;;;;45.30;21.38;;;8.00;96.60;;;;;;5042818;28;20052;-79
2023/12/18 09:07:57;;;;;;;38.72;20.50;;;8.00;96.60;;;;;;5075467;28;20067;-79
2023/12/18 09:10:24;;;;;;;37.45;20.83;;;8.00;96.50;;;;;;5060341;28;20045;-81
2023/12/18 09:12:52;;;;;;;39.65;20.60;;;8.00;96.50;;;;;;5080445;28;20474;-79
2023/12/18 09:15:18;;;;;;;35.45;19.75;;;8.00;96.50;;;;;;5078424;28;20494;-79
2023/12/18 09:17:44;;;;;;;34.08;18.40;;;8.10;96.50;;;;;;5060123;28;20040;-79
2023/12/18 09:20:10;;;;;;;42.50;20.35;;;8.10;96.50;;;;;;5076577;28;20058;-80
2023/12/18 09:22:36;;;;;;;38.20;20.92;;;8.00;96.60;;;;;;5062751;28;20043;-80
2023/12/18 09:25:03;;;;;;;34.55;18.50;;;8.10;96.60;;;;;;5066403;28;20404;-78
2023/12/18 09:27:29;;;;;;;37.88;21.33;;;8.10;96.60;;;;;;5056661;28;20120;-80
2023/12/18 09:29:54;;;;;;;30.83;18.02;;;8.10;96.40;;;;;;5076097;28;20437;-79
2023/12/18 09:32:20;;;;;;;36.08;20.95;;;8.10;96.50;;;;;;5077399;28;20260;-80
2023/12/18 09:34:46;;;;;;;37.17;21.70;;;8.10;96.50;;;;;;5074902;28;20040;-80
2023/12/18 09:37:12;;;;;;;34.83;20.27;;;8.20;96.40;;;;;;5055454;28;20088;-78
2023/12/18 09:39:40;;;;;;;38.17;22.13;;;8.10;96.40;;;;;;5057126;28;20534;-79
2023/12/18 09:42:06;;;;;;;39.50;20.30;;;8.10;96.40;;;;;;5077729;28;20760;-80
2023/12/18 09:44:32;;;;;;;34.13;21.30;;;8.10;96.40;;;;;;5054532;28;20044;-77
2023/12/18 09:47:01;;;;;;;38.42;20.80;;;8.10;96.40;;;;;;5065912;28;20063;-79
2023/12/18 09:49:27;;;;;;;33.63;18.48;;;8.10;96.40;;;;;;5091789;28;20126;-80
2023/12/18 09:52:06;;;;;;;34.55;21.33;;;8.10;96.40;;;;;;5093753;28;20440;-78
2023/12/18 09:54:33;;;;;;;37.92;21.73;;;8.10;96.30;;;;;;5093733;28;20077;-78
2023/12/18 09:57:02;;;;;;;33.45;21.75;;;8.10;96.30;;;;;;5076783;28;20043;-81
2023/12/18 09:59:28;;;;;;;41.47;22.20;;;8.10;96.30;;;;;;5108641;28;20047;-79
2023/12/18 10:01:55;;;;;;;44.78;23.58;;;8.10;96.30;;;;;;5070220;28;20044;-81
2023/12/18 10:04:21;;;;;;;35.63;23.42;;;8.10;96.30;;;;;;5070333;28;20048;-82
2023/12/18 10:06:48;;;;;;;37.20;23.15;;;8.10;96.20;;;;;;5069949;28;20041;-80
2023/12/18 10:09:15;;;;;;;36.45;20.63;;;8.10;96.40;;;;;;5052627;28;20116;-81
2023/12/18 10:11:44;;;;;;;29.55;19.88;;;8.10;96.30;;;;;;5039760;28;20178;-81
2023/12/18 10:14:15;;;;;;;39.63;23.80;;;8.10;96.20;;;;;;5056472;28;20068;-81
2023/12/18 10:16:42;;;;;;;36.90;22.77;;;8.10;96.00;;;;;;5040111;28;20037;-82
2023/12/18 10:19:08;;;;;;;36.28;23.23;;;8.10;96.10;;;;;;5056373;28;20040;-79
2023/12/18 10:21:34;;;;;;;45.97;25.30;;;8.10;96.10;;;;;;5090750;28;20051;-78
2023/12/18 10:24:01;;;;;;;40.85;24.45;;;8.10;96.10;;;;;;5076547;28;20063;-80
2023/12/18 10:26:28;;;;;;;37.17;23.80;;;8.10;96.10;;;;;;5093327;28;20036;-81
2023/12/18 10:28:54;;;;;;;35.47;21.30;;;8.10;96.00;;;;;;5093202;28;20507;-81
2023/12/18 10:31:20;;;;;;;43.72;24.42;;;8.10;96.20;;;;;;5076630;28;20037;-79
2023/12/18 10:33:46;;;;;;;39.08;22.40;;;8.10;96.20;;;;;;5055209;28;20095;-79
2023/12/18 10:36:16;;;;;;;50.05;22.25;;;8.10;96.20;;;;;;5056174;28;20484;-80
2023/12/18 10:38:47;;;;;;;40.50;21.30;;;8.10;96.30;;;;;;5073042;28;20059;-81
2023/12/18 10:41:14;;;;;;;41.13;21.70;;;8.10;96.20;;;;;;5070455;28;20432;-80
2023/12/18 10:43:41;;;;;;;32.38;20.80;;;8.20;96.40;;;;;;5075616;28;20062;-79
2023/12/18 10:46:09;;;;;;;39.95;21.63;;;8.20;96.30;;;;;;5075832;28;20048;-81
2023/12/18 10:48:36;;;;;;;40.00;19.60;;;8.20;96.40;;;;;;5107820;28;20098;-81
2023/12/18 10:51:03;;;;;;;37.40;20.98;;;8.30;96.20;;;;;;5080768;28;20068;-81
2023/12/18 10:53:33;;;;;;;32.78;17.05;;;8.30;96.40;;;;;;5064328;28;20059;-80
2023/12/18 10:56:01;;;;;;;30.60;18.33;;;8.40;96.40;;;;;;5082574;28;20469;-80
2023/12/18 10:58:28;;;;;;;30.42;18.45;;;8.40;96.20;;;;;;5062448;28;20037;-80
2023/12/18 11:00:55;;;;;;;35.53;18.33;;;8.40;96.20;;;;;;5065960;28;20067;-80
2023/12/18 11:03:26;;;;;;;35.65;18.90;;;8.50;96.20;;;;;;5072179;28;20044;-81
2023/12/18 11:05:54;;;;;;;33.63;18.65;;;8.50;96.10;;;;;;5039850;28;20040;-82
2023/12/18 11:08:20;;;;;;;30.73;18.88;;;8.50;96.10;;;;;;5072080;28;20047;-80
2023/12/18 11:10:46;;;;;;;34.88;19.23;;;8.50;96.10;;;;;;5066259;28;20063;-78
2023/12/18 11:13:21;;;;;;;34.85;19.10;;;8.60;96.10;;;;;;5092682;28;20089;-80
2023/12/18 11:15:53;;;;;;;33.63;19.38;;;8.50;96.10;;;;;;5075600;28;20105;-80
2023/12/18 11:18:25;;;;;;;33.85;18.38;;;8.60;96.10;;;;;;5126229;27;20036;-79
2023/12/18 11:20:52;;;;;;;36.75;19.80;;;8.60;96.10;;;;;;5073958;28;20044;-81
2023/12/18 11:23:18;;;;;;;33.70;18.02;;;8.50;95.90;;;;;;5075243;28;20040;-81
2023/12/18 11:25:48;;;;;;;33.22;19.75;;;8.50;96.10;;;;;;5092398;28;20039;-79
2023/12/18 11:28:14;;;;;;;36.35;20.02;;;8.50;96.00;;;;;;5075452;28;20361;-79
2023/12/18 11:30:42;;;;;;;29.83;19.40;;;8.50;96.10;;;;;;5074327;28;20119;-81
2023/12/18 11:33:10;;;;;;;32.17;19.70;;;8.50;96.00;;;;;;5092035;28;20612;-81
2023/12/18 11:35:37;;;;;;;28.75;18.65;;;8.50;96.10;;;;;;5075080;28;20036;-80
2023/12/18 11:38:06;;;;;;;34.53;19.02;;;8.50;96.00;;;;;;5091792;28;20040;-82
2023/12/18 11:40:32;;;;;;;35.72;20.17;;;8.50;96.00;;;;;;5081970;28;20130;-79
2023/12/18 11:43:04;;;;;;;33.70;18.98;;;8.50;96.10;;;;;;5071310;28;20170;-81
2023/12/18 11:45:30;;;;;;;31.58;19.67;;;8.50;96.10;;;;;;5055298;28;20040;-81
2023/12/18 11:48:03;;;;;;;39.72;18.92;;;8.60;96.00;;;;;;5071511;28;20036;-80
2023/12/18 11:50:36;;;;;;;37.10;19.33;;;8.60;96.10;;;;;;5071620;28;20055;-81
2023/12/18 11:53:06;;;;;;;31.67;17.83;;;8.60;96.00;;;;;;5054816;28;20127;-79
2023/12/18 11:55:40;;;;;;;29.90;15.25;;;8.70;96.00;;;;;;5071540;28;20075;-79
2023/12/18 11:58:07;;;;;;;28.90;15.45;;;8.70;96.00;;;;;;5071475;28;20115;-81
2023/12/18 12:00:34;;;;;;;25.85;13.80;;;8.70;95.80;;;;;;5079632;28;20043;-80
2023/12/18 12:03:04;;;;;;;28.13;14.70;;;8.80;95.70;;;;;;5061530;28;20036;-80
2023/12/18 12:05:31;;;;;;;32.45;17.20;;;8.80;95.60;;;;;;5071439;28;20137;-82
2023/12/18 12:07:58;;;;;;;30.23;15.82;;;8.80;95.50;;;;;;5071362;28;20094;-81
2023/12/18 12:10:24;;;;;;;25.70;17.13;;;8.80;95.50;;;;;;5071200;28;20048;-80
2023/12/18 12:12:57;;;;;;;31.15;16.60;;;8.80;95.30;;;;;;5054664;28;20043;-81
2023/12/18 12:15:28;;;;;;;30.38;16.67;;;8.70;95.30;;;;;;5054636;28;20041;-79
2023/12/18 12:18:06;;;;;;;27.67;15.93;;;8.80;95.30;;;;;;5038749;28;20036;-82
2023/12/18 12:20:32;;;;;;;30.80;18.40;;;8.80;95.30;;;;;;5079716;28;20553;-82
2023/12/18 12:22:58;;;;;;;30.02;18.13;;;8.70;95.30;;;;;;5091698;28;20408;-78
2023/12/18 12:25:24;;;;;;;26.80;16.02;;;8.70;95.20;;;;;;5074585;28;20560;-80
2023/12/18 12:27:50;;;;;;;31.63;16.48;;;8.70;95.30;;;;;;5091205;28;21148;-79
2023/12/18 12:30:17;;;;;;;29.45;14.30;;;8.70;95.20;;;;;;5072872;28;20036;-80
2023/12/18 12:32:44;;;;;;;31.35;17.15;;;8.70;95.40;;;;;;5094897;28;20047;-80
2023/12/18 12:35:11;;;;;;;27.60;15.93;;;8.80;95.00;;;;;;5078734;28;20062;-79